Lima, OH

3:10 PM EDT on March 30, 2017 (GMT -0400)
northwest lima | | Change Station
Active Advisory: Tornado Watch

Elev 879 ft 40.75 °N, 84.13 °W | Updated 48 seconds ago

Rain
Rain
49.5 °F
Feels Like 50 °F
N
2.2
Wind Variable Wind from SSE

Today
High -- | Low -- °F
--% Chance of Precip.
Yesterday
High -- | Low -- °F
Precip. -- in
Pressure 29.70 in
Visibility 10.0 miles
Clouds Few 4400 ft
Mostly Cloudy 7000 ft
Overcast 11000 ft
Windchill 50 °F
Dew Point 46 °F
Humidity 86%
Rainfall 0.17 in
Snow Depth Not available.
7:22 AM 7:59 PM
Waxing Crescent, 10% visible
SPECI KAOH 301901Z AUTO 07009KT 10SM -TSRA FEW044 BKN070 OVC110 11/09 A2970 RMK AO2 LTG DSNT ALQDS TSB1855 P0000 T01060089
Pressure 29.70 in
Visibility 10.0 miles
Clouds Few 4400 ft
Mostly Cloudy 7000 ft
Overcast 11000 ft
Windchill 50 °F
Dew Point 46 °F
Humidity 86%
Rainfall 0.17 in
Snow Depth Not available.
7:22 AM 7:59 PM
Waxing Crescent, 10% visible
SPECI KAOH 301901Z AUTO 07009KT 10SM -TSRA FEW044 BKN070 OVC110 11/09 A2970 RMK AO2 LTG DSNT ALQDS TSB1855 P0000 T01060089

Get Your Daily Forecast Email!

Thanks for signing up!

Be on the lookout for a verification email in your inbox.

You'll start receiving severe weather alerts in your inbox..

×

10-Day Weather Forecast

Almanac

Astronomy

Mar. 30, 2017 Rise Set
Actual Time
Civil Twilight
Nautical Twilight
Astronomical Twilight
Moon
Length of Visible Light
Length of Day
Tomorrow will be .
, % of the Moon is Illuminated

Today's Extremes

State Highs State Lows

Community

WunderPhotos

Upload Photos

1,962,540 photos uploaded!

WunderBlog® & News

Nearby

Air Quality

  Air Quality AQ Index Pollutant
Not available.

Snow Depth

Station Depth Elevation

Earthquake Activity

City Distance Mag. Time & Date
Minimum magnitude displayed is 2.5.

Earthquake Activity

City Distance Mag. Time & Date
Minimum magnitude displayed is 2.5.

Coastal Water Temperatures

Place Temperature

Stations

Nearby Weather Stations

Station Location Temp. Windchill Dew Point Humidity Wind Precip. Elev Updated Type
                   

Watches & Warnings

Tornado Watch
Issued: 3:03 PM EDT Mar. 30, 2017 – National Weather Service


The National Weather Service has issued Tornado Watch 104 in
effect until 10 PM EDT this evening for the following areas

In Indiana this watch includes 5 counties

In northern Indiana

Adams Blackford Grant
Jay Wells

In Ohio this watch includes 2 counties

In Northwest Ohio

Allen OH Van Wert

This includes the cities of Berne, Bluffton, Bluffton, Decatur,
Dunkirk, Gas City, Hartford City, Lima, Marion, Montpelier,
Ohio City, Ossian, Portland, Spencerville, Upland, and Van Wert.